Time;durP1;ratioP1;P1;durP2;ratioP2;P2;SDS_P1;SDS_P2;PMS_P1;PMS_P2;Temp;Humidity;BMP_temperature;BMP_pressure;BME280_temperature;BME280_humidity;BME280_pressure;Samples;Min_cycle;Max_cycle;Signal;HPM_P1;HPM_P2
2023/07/15 00:00:13;;;;;;;4.97;3.88;;;;;;;18.75;100.00;100402.97;5095324;27;20054;-76
2023/07/15 00:02:59;;;;;;;5.82;3.90;;;;;;;18.73;100.00;100398.59;5094853;28;20039;-76
2023/07/15 00:05:45;;;;;;;5.82;4.07;;;;;;;18.73;100.00;100389.69;5094658;28;20532;-75
2023/07/15 00:08:31;;;;;;;5.88;3.70;;;;;;;18.72;100.00;100385.31;5095850;28;20046;-75
2023/07/15 00:11:41;;;;;;;7.30;4.07;;;;;;;18.71;100.00;100381.81;5096568;28;20046;-76
2023/07/15 00:14:30;;;;;;;7.03;4.03;;;;;;;18.71;100.00;100372.91;5083035;28;20042;-76
2023/07/15 00:17:16;;;;;;;4.97;3.60;;;;;;;18.71;100.00;100367.53;5093390;28;20031;-76
2023/07/15 00:20:03;;;;;;;4.53;3.92;;;;;;;18.71;100.00;100364.84;5072000;28;20344;-76
2023/07/15 00:22:49;;;;;;;6.68;3.80;;;;;;;18.71;100.00;100360.34;5094183;28;20040;-76
2023/07/15 00:25:35;;;;;;;5.15;3.58;;;;;;;18.73;100.00;100349.47;5095058;28;20057;-76
2023/07/15 00:28:21;;;;;;;5.35;3.80;;;;;;;18.75;100.00;100349.34;5094932;27;20038;-76
2023/07/15 00:31:13;;;;;;;6.78;3.53;;;;;;;18.76;100.00;100345.69;5093364;28;20061;-75
2023/07/15 00:33:59;;;;;;;5.00;3.85;;;;;;;18.76;100.00;100345.69;5080067;28;20032;-76
2023/07/15 00:36:44;;;;;;;5.80;3.67;;;;;;;18.78;100.00;100336.50;5093034;28;20039;-76
2023/07/15 00:39:30;;;;;;;5.28;3.78;;;;;;;18.79;100.00;100332.84;5078746;28;20023;-75
2023/07/15 00:42:39;;;;;;;7.25;3.70;;;;;;;18.80;100.00;100331.84;5078613;28;20047;-76
2023/07/15 00:45:25;;;;;;;5.72;3.78;;;;;;;18.82;100.00;100326.38;5081964;28;20039;-75
2023/07/15 00:48:17;;;;;;;4.63;3.05;;;;;;;18.81;100.00;100328.22;5094243;28;20513;-76
2023/07/15 00:51:02;;;;;;;3.97;3.35;;;;;;;18.82;100.00;100321.00;5078623;28;20043;-76
2023/07/15 00:53:49;;;;;;;5.18;3.60;;;;;;;18.82;100.00;100318.31;5093400;28;20050;-75
2023/07/15 00:56:35;;;;;;;6.53;3.53;;;;;;;18.83;100.00;100312.84;5079860;28;20058;-75
2023/07/15 00:59:21;;;;;;;5.70;3.47;;;;;;;18.85;100.00;100313.53;5079249;28;20063;-76
2023/07/15 01:02:07;;;;;;;5.43;2.95;;;;;;;18.91;100.00;100319.34;5078328;28;20028;-75
2023/07/15 01:04:53;;;;;;;5.70;3.53;;;;;;;18.93;100.00;100317.38;5078826;28;20035;-76
2023/07/15 01:07:39;;;;;;;4.53;2.95;;;;;;;18.94;100.00;100319.06;5078318;28;21346;-76
2023/07/15 01:10:25;;;;;;;3.60;2.60;;;;;;;18.96;100.00;100317.09;5098044;27;20047;-75
2023/07/15 01:13:10;;;;;;;5.03;3.22;;;;;;;18.97;100.00;100316.13;5098348;27;20031;-75
2023/07/15 01:15:56;;;;;;;4.47;3.15;;;;;;;18.97;100.00;100310.75;5084770;27;20043;-76
2023/07/15 01:18:42;;;;;;;5.10;3.33;;;;;;;18.98;100.00;100301.72;5097093;27;20076;-77
2023/07/15 01:21:30;;;;;;;5.38;3.08;;;;;;;18.98;100.00;100299.03;5096701;27;20198;-75
2023/07/15 01:24:18;;;;;;;5.25;3.10;;;;;;;19.05;100.00;100296.66;5094887;27;20040;-74
2023/07/15 01:27:06;;;;;;;4.68;3.05;;;;;;;19.13;100.00;100296.84;5097910;27;20047;-76
2023/07/15 01:29:52;;;;;;;4.93;3.00;;;;;;;19.14;100.00;100288.63;5096799;27;20043;-75
2023/07/15 01:32:38;;;;;;;4.00;3.08;;;;;;;19.17;100.00;100298.25;5098207;27;20044;-75
2023/07/15 01:35:24;;;;;;;5.45;2.83;;;;;;;19.18;100.00;100291.88;5098870;27;20042;-75
2023/07/15 01:38:09;;;;;;;3.22;2.40;;;;;;;19.18;100.00;100285.69;5095841;27;20055;-74
2023/07/15 01:40:55;;;;;;;3.22;2.65;;;;;;;19.20;100.00;100276.50;5098310;27;20151;-74
2023/07/15 01:43:41;;;;;;;5.13;2.67;;;;;;;19.23;100.00;100278.06;5081695;27;20039;-76
2023/07/15 01:46:26;;;;;;;5.55;2.83;;;;;;;19.22;100.00;100270.97;5083074;27;20122;-75
2023/07/15 01:49:13;;;;;;;3.90;2.78;;;;;;;19.22;100.00;100276.34;5095995;27;20047;-75
2023/07/15 01:51:58;;;;;;;3.33;2.40;;;;;;;19.24;100.00;100271.72;5095405;27;20039;-75
2023/07/15 01:54:44;;;;;;;4.18;2.42;;;;;;;19.26;100.00;100281.31;5096892;27;20643;-75
2023/07/15 01:57:30;;;;;;;5.45;2.75;;;;;;;19.30;100.00;100279.19;5095842;27;20621;-75
2023/07/15 02:00:16;;;;;;;3.28;2.20;;;;;;;19.34;100.00;100285.13;5067446;27;20046;-75
2023/07/15 02:03:02;;;;;;;2.80;2.42;;;;;;;19.37;100.00;100280.34;5081594;27;20047;-74
2023/07/15 02:05:48;;;;;;;3.70;2.90;;;;;;;19.41;100.00;100279.03;5094301;27;20081;-74
2023/07/15 02:08:33;;;;;;;5.50;2.70;;;;;;;19.44;100.00;100267.19;5084127;27;20491;-75
2023/07/15 02:11:19;;;;;;;3.35;2.53;;;;;;;19.47;100.00;100277.66;5081601;27;22029;-75
2023/07/15 02:14:05;;;;;;;3.88;2.58;;;;;;;19.51;100.00;100259.41;5097734;27;20487;-75
2023/07/15 02:16:51;;;;;;;3.58;2.58;;;;;;;19.55;100.00;100263.50;5096790;27;20032;-75
2023/07/15 02:19:37;;;;;;;8.75;3.38;;;;;;;19.55;100.00;100263.50;5093263;27;20039;-74
2023/07/15 02:22:23;;;;;;;4.78;2.92;;;;;;;19.58;100.00;100265.06;5095862;27;20179;-75
2023/07/15 02:25:09;;;;;;;3.47;2.47;;;;;;;19.57;100.00;100272.28;5096565;27;20043;-75
2023/07/15 02:27:54;;;;;;;4.30;2.90;;;;;;;19.57;99.87;100274.97;5097685;27;20040;-74
2023/07/15 02:30:43;;;;;;;3.47;2.22;;;;;;;19.55;99.75;100268.88;5097471;27;20036;-74
2023/07/15 02:33:28;;;;;;;4.63;2.70;;;;;;;19.51;99.64;100267.47;5096258;27;20484;-74
2023/07/15 02:36:15;;;;;;;5.85;2.97;;;;;;;19.47;99.84;100272.28;5095392;27;20040;-76
2023/07/15 02:39:00;;;;;;;3.28;2.33;;;;;;;19.44;99.54;100267.19;5097189;27;20121;-75
2023/07/15 02:41:46;;;;;;;4.13;2.50;;;;;;;19.41;99.73;100278.22;5093822;27;20074;-75
2023/07/15 02:44:32;;;;;;;4.88;3.22;;;;;;;19.37;99.97;100272.28;5094421;27;20042;-75
2023/07/15 02:47:18;;;;;;;4.28;2.75;;;;;;;19.33;100.00;100281.59;5097867;27;20046;-75
2023/07/15 02:50:06;;;;;;;4.82;2.83;;;;;;;19.30;100.00;100272.97;5081483;27;20133;-76
2023/07/15 02:52:52;;;;;;;4.90;2.70;;;;;;;19.25;100.00;100278.78;5081293;27;20035;-75
2023/07/15 02:55:37;;;;;;;8.00;2.97;;;;;;;19.20;100.00;100286.38;5095736;27;20050;-75
2023/07/15 02:58:23;;;;;;;3.40;2.72;;;;;;;19.15;100.00;100286.81;5081290;27;20032;-75
2023/07/15 03:01:09;;;;;;;4.03;2.72;;;;;;;19.09;100.00;100288.22;5095642;27;20039;-74
2023/07/15 03:03:55;;;;;;;6.07;3.20;;;;;;;19.04;100.00;100287.78;5082205;27;20027;-75
2023/07/15 03:06:41;;;;;;;4.13;2.72;;;;;;;19.00;100.00;100286.31;5095716;27;20039;-75
2023/07/15 03:09:27;;;;;;;5.18;2.88;;;;;;;18.93;100.00;100280.69;5095563;27;20054;-75
2023/07/15 03:12:13;;;;;;;3.25;2.78;;;;;;;18.87;100.00;100284.75;5065745;27;20059;-76
2023/07/15 03:14:59;;;;;;;4.28;3.17;;;;;;;18.80;100.00;100288.97;5083597;27;20031;-76
2023/07/15 03:17:46;;;;;;;4.25;2.90;;;;;;;18.73;100.00;100290.50;5080399;27;20131;-75
2023/07/15 03:20:31;;;;;;;4.13;2.70;;;;;;;18.66;100.00;100283.97;5080066;27;20503;-74
2023/07/15 03:23:17;;;;;;;4.68;2.80;;;;;;;18.59;100.00;100292.56;5079838;27;20061;-75
2023/07/15 03:26:03;;;;;;;3.15;2.47;;;;;;;18.54;100.00;100293.97;5080391;27;20024;-75
2023/07/15 03:28:49;;;;;;;4.55;2.90;;;;;;;18.49;100.00;100296.19;5094775;27;20067;-74
2023/07/15 03:31:36;;;;;;;4.45;3.30;;;;;;;18.42;100.00;100293.22;5094967;27;20048;-75
2023/07/15 03:34:21;;;;;;;3.95;3.10;;;;;;;18.36;100.00;100291.06;5080756;27;20180;-74
2023/07/15 03:37:07;;;;;;;5.22;3.03;;;;;;;18.32;100.00;100303.91;5094157;27;20038;-75
2023/07/15 03:39:53;;;;;;;5.97;2.78;;;;;;;18.27;100.00;100309.66;5093632;27;20039;-75
2023/07/15 03:42:39;;;;;;;6.03;3.15;;;;;;;18.25;100.00;100311.59;5094047;27;20059;-75
2023/07/15 03:45:25;;;;;;;3.63;2.88;;;;;;;18.22;100.00;100303.84;5093936;27;22094;-74
2023/07/15 03:48:10;;;;;;;4.47;3.20;;;;;;;18.21;100.00;100298.59;5077775;28;20182;-75
2023/07/15 03:50:56;;;;;;;5.43;3.08;;;;;;;18.19;100.00;100293.38;5093996;27;20039;-75
2023/07/15 03:53:42;;;;;;;6.32;3.22;;;;;;;18.16;100.00;100299.00;5094853;27;20139;-74
2023/07/15 03:56:27;;;;;;;4.10;2.83;;;;;;;18.16;100.00;100299.00;5079827;27;20032;-75
2023/07/15 03:59:13;;;;;;;5.07;3.20;;;;;;;18.15;100.00;100289.28;5093745;27;20487;-74
2023/07/15 04:01:59;;;;;;;8.75;3.25;;;;;;;18.15;100.00;100286.59;5076812;28;20118;-75
2023/07/15 04:04:45;;;;;;;4.57;3.10;;;;;;;18.15;100.00;100290.13;5079500;28;20098;-76
2023/07/15 04:07:32;;;;;;;5.15;3.25;;;;;;;18.13;100.00;100292.09;5072913;28;20757;-75
2023/07/15 04:10:18;;;;;;;4.78;3.00;;;;;;;18.14;100.00;100291.09;5095046;28;20100;-75
2023/07/15 04:13:03;;;;;;;5.07;3.13;;;;;;;18.13;100.00;100289.41;5096512;28;20043;-75
2023/07/15 04:15:49;;;;;;;5.15;3.40;;;;;;;18.14;100.00;100295.63;5079203;28;20039;-75
2023/07/15 04:18:35;;;;;;;5.80;2.97;;;;;;;18.15;100.00;100297.31;5080059;28;20074;-75
2023/07/15 04:21:21;;;;;;;5.43;3.50;;;;;;;18.15;100.00;100302.69;5094613;28;20023;-75
2023/07/15 04:24:07;;;;;;;6.15;3.42;;;;;;;18.17;100.00;100306.94;5078444;28;20028;-75
2023/07/15 04:26:53;;;;;;;4.03;3.08;;;;;;;18.20;100.00;100308.50;5080512;28;20399;-75
2023/07/15 04:29:39;;;;;;;5.35;3.38;;;;;;;18.21;100.00;100310.19;5092901;28;20131;-76
2023/07/15 04:32:24;;;;;;;5.65;3.58;;;;;;;18.21;100.00;100307.50;5094300;28;20039;-74
2023/07/15 04:35:10;;;;;;;5.63;3.25;;;;;;;18.25;100.00;100308.91;5081367;28;20066;-76
2023/07/15 04:37:56;;;;;;;5.38;3.38;;;;;;;18.27;100.00;100312.34;5092417;28;20113;-76
2023/07/15 04:40:42;;;;;;;4.97;3.38;;;;;;;18.29;100.00;100320.22;5093663;28;20028;-76
2023/07/15 04:43:28;;;;;;;6.28;4.07;;;;;;;18.32;100.00;100326.16;5077816;27;20130;-76
2023/07/15 04:46:14;;;;;;;5.75;3.80;;;;;;;18.38;100.00;100319.44;5096882;27;20297;-76
2023/07/15 04:48:59;;;;;;;7.38;3.67;;;;;;;18.43;100.00;100316.34;5081139;27;20403;-76
2023/07/15 04:51:45;;;;;;;5.82;3.80;;;;;;;18.49;100.00;100320.31;5081776;27;20028;-76
2023/07/15 04:54:31;;;;;;;6.15;3.55;;;;;;;18.56;100.00;100313.44;5082871;27;20048;-76
2023/07/15 04:57:18;;;;;;;5.03;3.30;;;;;;;18.63;100.00;100311.06;5098170;27;20111;-76
2023/07/15 05:00:08;;;;;;;4.65;3.03;;;;;;;18.69;100.00;100310.53;5070074;27;20134;-76
2023/07/15 05:02:54;;;;;;;4.97;3.55;;;;;;;18.79;100.00;100322.13;5098021;27;20088;-75
2023/07/15 05:05:40;;;;;;;7.75;3.70;;;;;;;18.90;100.00;100323.00;5098657;27;20650;-75
2023/07/15 05:08:27;;;;;;;4.30;3.63;;;;;;;18.99;100.00;100306.09;5080806;27;20036;-75
2023/07/15 05:11:15;;;;;;;4.53;3.17;;;;;;;19.12;100.00;100316.59;5083294;27;20940;-75
2023/07/15 05:14:02;;;;;;;4.82;3.33;;;;;;;19.23;100.00;100303.06;5088742;27;20023;-76
2023/07/15 05:16:48;;;;;;;4.43;3.40;;;;;;;19.33;100.00;100307.59;5096340;27;20398;-75
2023/07/15 05:19:34;;;;;;;7.20;3.50;;;;;;;19.47;100.00;100311.69;5097986;27;20046;-76
2023/07/15 05:22:20;;;;;;;6.32;3.40;;;;;;;19.61;100.00;100303.19;5096467;27;20040;-75
2023/07/15 05:25:06;;;;;;;4.97;3.30;;;;;;;19.73;100.00;100309.28;5098061;27;20080;-76
2023/07/15 05:27:51;;;;;;;3.95;3.10;;;;;;;19.85;100.00;100317.16;5078177;27;20490;-76
2023/07/15 05:30:37;;;;;;;3.90;3.10;;;;;;;19.93;100.00;100320.84;5083008;27;20526;-76
2023/07/15 05:33:23;;;;;;;5.15;3.30;;;;;;;20.00;100.00;100325.66;5098196;27;20072;-76
2023/07/15 05:36:09;;;;;;;5.85;3.25;;;;;;;20.07;100.00;100333.03;5096552;27;20084;-76
2023/07/15 05:38:54;;;;;;;5.32;2.83;;;;;;;20.13;100.00;100334.28;5096821;27;20599;-76
2023/07/15 05:41:40;;;;;;;4.78;3.00;;;;;;;20.21;100.00;100331.69;5096559;27;21986;-76
2023/07/15 05:44:26;;;;;;;3.90;2.70;;;;;;;20.33;100.00;100334.22;5097136;27;20461;-75
2023/07/15 05:47:12;;;;;;;4.05;2.72;;;;;;;20.44;100.00;100334.03;5080671;27;20046;-76
2023/07/15 05:49:57;;;;;;;6.75;2.60;;;;;;;20.53;100.00;100331.47;5064125;27;20052;-75
2023/07/15 05:52:43;;;;;;;5.47;2.90;;;;;;;20.67;100.00;100340.88;5095884;27;20084;-75
2023/07/15 05:55:30;;;;;;;4.78;2.47;;;;;;;20.85;100.00;100332.88;5095967;27;20547;-75
2023/07/15 05:58:15;;;;;;;4.85;2.50;;;;;;;21.06;100.00;100337.16;5082797;27;20479;-75
2023/07/15 06:01:01;;;;;;;2.92;2.10;;;;;;;21.17;100.00;100342.34;5067532;27;20680;-76
2023/07/15 06:03:47;;;;;;;4.05;2.08;;;;;;;21.29;100.00;100335.75;5095794;27;20044;-75
2023/07/15 06:06:33;;;;;;;4.93;2.58;;;;;;;21.42;100.00;100348.00;5096069;27;20150;-75
2023/07/15 06:09:18;;;;;;;2.30;1.95;;;;;;;21.60;100.00;100339.91;5094837;27;20626;-74
2023/07/15 06:12:04;;;;;;;3.08;2.10;;;;;;;21.80;100.00;100346.00;5094233;27;22001;-76
2023/07/15 06:14:50;;;;;;;3.40;2.22;;;;;;;21.89;100.00;100343.41;5096073;27;20100;-75
2023/07/15 06:17:36;;;;;;;4.88;1.88;;;;;;;21.94;100.00;100351.81;5096531;27;20040;-74
2023/07/15 06:20:22;;;;;;;2.40;1.65;;;;;;;22.01;100.00;100355.59;5082458;27;20043;-74
2023/07/15 06:23:07;;;;;;;1.95;1.55;;;;;;;21.97;100.00;100352.34;5079189;27;20035;-74
2023/07/15 06:25:55;;;;;;;3.03;1.60;;;;;;;21.92;100.00;100360.09;5095609;27;20590;-75
2023/07/15 06:28:41;;;;;;;2.13;1.40;;;;;;;21.88;100.00;100358.69;5073909;27;20051;-75
2023/07/15 06:31:27;;;;;;;2.13;1.60;;;;;;;21.87;100.00;100358.84;5080085;27;20058;-74
2023/07/15 06:34:13;;;;;;;3.08;1.48;;;;;;;21.94;100.00;100363.47;5095248;27;20093;-74
2023/07/15 06:36:58;;;;;;;2.63;1.85;;;;;;;21.91;100.00;100358.41;5096360;27;20170;-75
2023/07/15 06:39:44;;;;;;;2.67;1.60;;;;;;;21.89;100.00;100354.16;5094542;27;20105;-74
2023/07/15 06:42:30;;;;;;;3.60;1.60;;;;;;;21.92;100.00;100359.22;5094146;27;20088;-74
2023/07/15 06:45:19;;;;;;;2.70;1.70;;;;;;;21.91;100.00;100374.56;5094713;27;20076;-75
2023/07/15 06:48:05;;;;;;;2.38;1.70;;;;;;;21.98;100.00;100372.09;5094513;27;20040;-76
2023/07/15 06:50:50;;;;;;;3.13;2.00;;;;;;;22.05;100.00;100364.22;5080876;27;20044;-73
2023/07/15 06:53:36;;;;;;;3.17;2.25;;;;;;;22.09;100.00;100363.75;5095084;27;20127;-74
2023/07/15 06:56:22;;;;;;;4.13;2.17;;;;;;;22.10;100.00;100359.19;5083277;27;20108;-73
2023/07/15 06:59:08;;;;;;;2.58;2.08;;;;;;;22.07;100.00;100357.66;5063602;27;20484;-74
2023/07/15 07:01:53;;;;;;;3.05;2.05;;;;;;;22.04;100.00;100357.97;5096832;27;20036;-75
2023/07/15 07:04:39;;;;;;;2.15;1.95;;;;;;;22.00;100.00;100353.91;5082617;27;20071;-75
2023/07/15 07:07:25;;;;;;;2.75;2.10;;;;;;;21.95;100.00;100364.31;5076770;27;20036;-75
2023/07/15 07:10:11;;;;;;;1.75;1.63;;;;;;;21.95;100.00;100365.16;5078312;27;20119;-75
2023/07/15 07:12:57;;;;;;;2.33;2.13;;;;;;;22.00;100.00;100364.69;5068443;27;20043;-75
2023/07/15 07:15:42;;;;;;;3.00;2.17;;;;;;;22.06;100.00;100360.53;5099156;27;20219;-76
2023/07/15 07:18:28;;;;;;;2.85;1.80;;;;;;;22.10;100.00;100372.66;5092497;27;20039;-76
2023/07/15 07:21:14;;;;;;;2.90;1.83;;;;;;;22.08;100.00;100375.53;5090486;27;20036;-75
2023/07/15 07:24:00;;;;;;;3.88;1.85;;;;;;;22.06;100.00;100366.75;5080520;27;20035;-75
2023/07/15 07:26:47;;;;;;;2.83;2.42;;;;;;;22.09;100.00;100371.84;5097581;27;20549;-76
2023/07/15 07:29:34;;;;;;;5.25;2.00;;;;;;;22.17;100.00;100373.72;5098066;27;20047;-75
2023/07/15 07:32:20;;;;;;;4.68;1.52;;;;;;;22.23;100.00;100372.28;5095448;27;20039;-76
2023/07/15 07:35:06;;;;;;;2.95;1.52;;;;;;;22.20;100.00;100384.22;5073444;27;20036;-76
2023/07/15 07:37:54;;;;;;;3.22;1.85;;;;;;;22.21;100.00;100379.66;5091743;27;20034;-75
2023/07/15 07:40:45;;;;;;;2.10;1.45;;;;;;;22.24;100.00;100390.13;5093276;27;20651;-76
2023/07/15 07:43:32;;;;;;;1.45;1.30;;;;;;;22.30;100.00;100384.13;5076965;27;20040;-75
2023/07/15 07:46:17;;;;;;;1.80;1.40;;;;;;;22.39;100.00;100393.94;5066193;27;20036;-75
2023/07/15 07:49:03;;;;;;;1.55;1.23;;;;;;;22.49;100.00;100391.13;5068851;27;20516;-75
2023/07/15 07:51:49;;;;;;;1.73;1.60;;;;;;;22.55;100.00;100403.16;5095555;27;20046;-75
2023/07/15 07:54:35;;;;;;;3.28;1.50;;;;;;;22.61;100.00;100401.69;5094241;27;20036;-74
2023/07/15 07:57:20;;;;;;;2.42;1.77;;;;;;;22.79;100.00;100401.63;5096089;27;20039;-74
2023/07/15 08:00:07;;;;;;;1.58;1.40;;;;;;;22.88;100.00;100408.75;5095673;27;20043;-74
2023/07/15 08:02:52;;;;;;;1.50;1.40;;;;;;;22.97;100.00;100400.66;5080337;28;20175;-74
2023/07/15 08:05:45;;;;;;;2.70;1.70;;;;;;;23.12;100.00;100406.31;5065311;28;20097;-74
2023/07/15 08:08:31;;;;;;;;;;;;;;;23.26;100.00;100415.66;5079510;28;20035;-75
2023/07/15 08:11:17;;;;;;;1.65;1.20;;;;;;;23.24;100.00;100412.25;5095143;28;20289;-74
2023/07/15 08:14:02;;;;;;;2.03;1.30;;;;;;;23.27;100.00;100407.38;5094234;28;20046;-75
2023/07/15 08:16:50;;;;;;;1.77;1.00;;;;;;;23.38;100.00;100417.06;5078668;28;20050;-74
2023/07/15 08:19:35;;;;;;;1.30;0.90;;;;;;;23.51;100.00;100416.59;5097589;27;20168;-75
2023/07/15 08:22:22;;;;;;;1.60;1.00;;;;;;;23.59;100.00;100416.59;5098372;27;20036;-74
2023/07/15 08:25:07;;;;;;;2.55;1.20;;;;;;;23.73;100.00;100431.31;5097043;27;20043;-75
2023/07/15 08:27:54;;;;;;;1.08;0.80;;;;;;;23.91;99.59;100433.03;5098804;27;20066;-75
2023/07/15 08:30:39;;;;;;;1.30;0.98;;;;;;;23.92;98.12;100432.03;5097663;27;20643;-75
2023/07/15 08:33:25;;;;;;;1.05;0.90;;;;;;;24.05;97.16;100433.38;5082750;27;20040;-74
2023/07/15 08:36:11;;;;;;;1.02;0.80;;;;;;;24.08;95.03;100438.47;5095621;27;20570;-75
2023/07/15 08:38:57;;;;;;;1.75;0.82;;;;;;;24.10;95.85;100442.72;5082663;27;20035;-75
2023/07/15 08:41:44;;;;;;;1.23;0.98;;;;;;;24.25;95.71;100437.44;5084004;27;20055;-74
2023/07/15 08:44:30;;;;;;;1.45;1.00;;;;;;;24.45;95.71;100437.09;5080527;27;20043;-74
2023/07/15 08:47:23;;;;;;;1.75;1.00;;;;;;;24.67;92.71;100434.69;5082060;27;20036;-75
2023/07/15 08:50:12;;;;;;;0.88;0.77;;;;;;;24.75;93.94;100440.09;5071967;27;20617;-74
2023/07/15 08:53:00;;;;;;;1.08;0.95;;;;;;;24.94;93.91;100440.72;5082464;27;20039;-75
2023/07/15 08:55:46;;;;;;;1.85;1.20;;;;;;;25.13;93.57;100449.47;5079715;27;20061;-74
2023/07/15 08:58:32;;;;;;;1.48;1.13;;;;;;;25.14;91.34;100446.59;5097788;27;21589;-74
2023/07/15 09:01:17;;;;;;;3.38;1.08;;;;;;;25.08;89.89;100448.16;5097098;27;20039;-74
2023/07/15 09:04:03;;;;;;;1.95;1.23;;;;;;;25.02;88.39;100448.84;5098026;27;20050;-75
2023/07/15 09:06:50;;;;;;;3.63;1.33;;;;;;;24.97;89.00;100453.94;5082981;27;20051;-75
2023/07/15 09:09:38;;;;;;;1.58;0.90;;;;;;;25.16;88.11;100449.13;5081477;27;20055;-74
2023/07/15 09:12:24;;;;;;;1.75;0.90;;;;;;;25.21;86.91;100446.72;5083187;27;20066;-75
2023/07/15 09:15:11;;;;;;;1.15;1.05;;;;;;;25.16;86.66;100452.66;5096918;27;20039;-75
2023/07/15 09:17:59;;;;;;;1.83;1.10;;;;;;;25.03;86.89;100453.22;5083054;27;20036;-75
2023/07/15 09:20:45;;;;;;;2.30;0.98;;;;;;;25.04;87.19;100456.75;5098226;27;20123;-75
2023/07/15 09:23:31;;;;;;;2.38;1.10;;;;;;;25.11;86.79;100462.34;5095708;27;20038;-76
2023/07/15 09:26:18;;;;;;;1.52;0.98;;;;;;;25.28;87.30;100463.94;5096240;27;20463;-76
2023/07/15 09:29:04;;;;;;;4.47;1.20;;;;;;;25.60;86.98;100456.72;5082742;27;20031;-76
2023/07/15 09:31:49;;;;;;;2.63;1.10;;;;;;;25.90;85.68;100462.28;5096595;27;20035;-75
2023/07/15 09:34:40;;;;;;;2.95;1.10;;;;;;;25.80;82.97;100461.66;5082623;27;21807;-76
2023/07/15 09:37:32;;;;;;;2.00;1.10;;;;;;;25.47;80.52;100468.09;5098217;27;20107;-75
2023/07/15 09:40:18;;;;;;;;;;;;;;;25.17;78.76;100470.59;5105827;27;20495;-75
2023/07/15 09:43:04;;;;;;;2.28;1.10;;;;;;;24.98;83.06;100462.88;5098522;27;19924;-75
2023/07/15 09:45:50;;;;;;;2.53;1.33;;;;;;;25.01;82.98;100473.38;5099313;27;20043;-75
2023/07/15 09:48:35;;;;;;;2.58;1.20;;;;;;;25.19;81.91;100474.00;5091294;27;20058;-74
2023/07/15 09:51:21;;;;;;;2.38;1.05;;;;;;;25.28;81.19;100479.38;5093531;27;22118;-75
2023/07/15 09:54:08;;;;;;;1.70;1.00;;;;;;;25.39;80.42;100483.56;5095158;27;20028;-75
2023/07/15 09:57:00;;;;;;;1.33;1.10;;;;;;;25.68;77.67;100468.53;5076453;27;20038;-74
2023/07/15 09:59:52;;;;;;;3.05;1.10;;;;;;;25.76;77.72;100484.72;5082462;27;20036;-74
2023/07/15 10:02:42;;;;;;;1.88;1.25;;;;;;;25.90;76.61;100486.69;5097376;27;20549;-74
2023/07/15 10:05:29;;;;;;;3.00;1.30;;;;;;;26.14;76.76;100490.22;5081498;27;20043;-72
2023/07/15 10:08:16;;;;;;;2.75;1.30;;;;;;;26.36;75.81;100492.31;5081206;27;20035;-75
2023/07/15 10:11:02;;;;;;;1.77;0.93;;;;;;;26.28;73.71;100483.22;5075205;27;20114;-76
2023/07/15 10:13:47;;;;;;;1.95;0.82;;;;;;;26.17;73.91;100484.47;5097043;27;20522;-74
2023/07/15 10:16:37;;;;;;;2.78;1.90;;;;;;;26.20;73.81;100477.81;5079776;27;21984;-75
2023/07/15 10:19:43;;;;;;;2.55;1.02;;;;;;;26.19;71.75;100495.09;5081296;27;20035;-76
2023/07/15 10:22:34;;;;;;;1.92;1.17;;;;;;;26.22;71.97;100491.22;5082782;27;20035;-75
2023/07/15 10:25:20;;;;;;;2.65;1.13;;;;;;;26.23;73.82;100482.06;5082504;27;20099;-75
2023/07/15 10:28:12;;;;;;;2.55;1.00;;;;;;;26.36;72.47;100487.72;5079192;27;20832;-73
2023/07/15 10:31:05;;;;;;;;;;;;;;;26.41;71.28;100479.88;5078868;27;20046;-74
2023/07/15 10:33:58;;;;;;;1.60;0.90;;;;;;;26.48;74.42;100469.13;5080630;27;19923;-74
2023/07/15 10:36:46;;;;;;;2.50;1.00;;;;;;;26.56;74.10;100476.34;5094213;27;20209;-75
2023/07/15 10:39:32;;;;;;;2.55;1.15;;;;;;;26.52;74.51;100465.00;5095019;27;20043;-75
2023/07/15 10:42:18;;;;;;;1.60;1.10;;;;;;;26.56;74.61;100470.91;5094609;27;20060;-74
2023/07/15 10:45:04;;;;;;;1.92;1.00;;;;;;;26.52;74.07;100475.03;5095377;27;20967;-74
2023/07/15 10:47:50;;;;;;;1.42;0.85;;;;;;;26.41;74.59;100476.31;5094815;27;20051;-74
2023/07/15 10:50:35;;;;;;;2.55;1.08;;;;;;;26.32;75.33;100464.69;5095250;27;20038;-74
2023/07/15 10:53:23;;;;;;;1.42;0.90;;;;;;;26.21;74.68;100468.66;5096738;27;20125;-74
2023/07/15 10:56:10;;;;;;;1.15;0.90;;;;;;;26.29;76.38;100465.06;5095534;27;20058;-74
2023/07/15 10:58:57;;;;;;;1.02;0.90;;;;;;;26.46;75.87;100471.19;5080614;27;20407;-74
2023/07/15 11:01:43;;;;;;;1.15;1.05;;;;;;;26.61;75.02;100463.06;5095112;27;20047;-73
2023/07/15 11:04:30;;;;;;;0.82;0.80;;;;;;;26.58;74.62;100474.31;5096327;27;20050;-74
2023/07/15 11:07:15;;;;;;;1.73;1.00;;;;;;;26.46;75.16;100475.78;5080856;27;20150;-74
2023/07/15 11:10:01;;;;;;;1.08;0.98;;;;;;;26.56;75.61;100470.91;5078638;27;20100;-75
2023/07/15 11:12:47;;;;;;;1.33;0.75;;;;;;;26.69;75.30;100471.13;5095441;27;20039;-74
2023/07/15 11:15:35;;;;;;;1.58;1.10;;;;;;;26.67;74.97;100461.47;5085443;27;21304;-74
2023/07/15 11:18:22;;;;;;;2.50;1.02;;;;;;;26.48;75.46;100466.44;5094337;27;20114;-75
2023/07/15 11:21:08;;;;;;;2.08;1.00;;;;;;;26.26;76.01;100454.59;5081006;27;20038;-74
2023/07/15 11:23:54;;;;;;;1.40;1.00;;;;;;;26.15;76.63;100455.84;5094967;27;20081;-74
2023/07/15 11:26:44;;;;;;;1.30;1.00;;;;;;;26.19;76.04;100440.84;5096195;27;20146;-75
2023/07/15 11:29:29;;;;;;;1.25;0.90;;;;;;;26.29;77.06;100444.22;5079377;28;20184;-75
2023/07/15 11:32:15;;;;;;;1.75;1.00;;;;;;;26.28;76.09;100445.25;5094579;27;20067;-74
2023/07/15 11:35:12;;;;;;;1.10;1.00;;;;;;;26.12;73.44;100453.47;5095392;27;20391;-75
2023/07/15 11:37:58;;;;;;;3.70;1.10;;;;;;;25.94;75.51;100445.66;5080592;27;20023;-74
2023/07/15 11:40:54;;;;;;;0.82;0.80;;;;;;;25.77;75.88;100443.91;5094996;27;20046;-75
2023/07/15 11:43:40;;;;;;;1.65;1.20;;;;;;;25.88;77.25;100441.81;5094527;27;20843;-75
2023/07/15 11:46:29;;;;;;;1.30;1.00;;;;;;;26.04;76.17;100451.69;5079875;27;20123;-75
2023/07/15 11:49:21;;;;;;;1.05;0.90;;;;;;;25.95;75.12;100441.91;5081618;27;20035;-75
2023/07/15 11:52:17;;;;;;;;;;;;;;;25.88;74.81;100447.22;5082996;28;20084;-75
2023/07/15 11:55:04;;;;;;;1.85;0.88;;;;;;;25.84;76.59;100437.75;5083398;28;20937;-75
2023/07/15 11:57:50;;;;;;;1.08;0.90;;;;;;;25.93;76.52;100430.41;5097539;27;20491;-75
2023/07/15 12:00:36;;;;;;;1.80;1.27;;;;;;;26.11;76.57;100424.66;5082540;28;20042;-74
2023/07/15 12:03:22;;;;;;;1.08;1.00;;;;;;;26.25;76.37;100421.19;5096406;27;21957;-75
2023/07/15 12:06:22;;;;;;;2.03;1.40;;;;;;;26.19;76.01;100411.03;5065081;28;20063;-75
2023/07/15 12:09:11;;;;;;;1.30;1.13;;;;;;;26.25;76.09;100415.75;5094761;28;20122;-76
2023/07/15 12:11:57;;;;;;;3.53;1.30;;;;;;;26.35;75.90;100409.25;5067141;28;20046;-75
2023/07/15 12:14:43;;;;;;;1.40;1.05;;;;;;;26.34;75.83;100402.97;5077662;28;20035;-75
2023/07/15 12:17:29;;;;;;;1.85;1.38;;;;;;;26.15;74.68;100397.00;5080991;28;20045;-76
2023/07/15 12:20:14;;;;;;;2.10;1.30;;;;;;;26.15;75.97;100405.13;5098166;28;20040;-75
2023/07/15 12:23:00;;;;;;;1.20;1.10;;;;;;;26.26;75.87;100397.63;5081622;28;20066;-75
2023/07/15 12:25:46;;;;;;;1.92;1.25;;;;;;;26.23;75.19;100400.69;5096489;28;20039;-75
2023/07/15 12:28:31;;;;;;;1.30;1.20;;;;;;;26.01;74.97;100403.22;5082641;28;20067;-76
2023/07/15 12:31:17;;;;;;;3.40;1.52;;;;;;;25.76;75.26;100409.69;5083508;28;20050;-75
2023/07/15 12:34:03;;;;;;;1.85;1.20;;;;;;;25.51;75.84;100403.56;5079763;28;20035;-75
2023/07/15 12:36:49;;;;;;;2.53;1.42;;;;;;;25.36;76.11;100406.19;5096940;28;20035;-75
2023/07/15 12:39:35;;;;;;;1.67;1.27;;;;;;;25.26;76.55;100395.56;5059312;28;20050;-76
2023/07/15 12:42:23;;;;;;;1.40;1.30;;;;;;;25.23;76.65;100385.13;5091465;28;20633;-74
2023/07/15 12:45:11;;;;;;;3.88;1.40;;;;;;;25.19;77.18;100400.03;5089721;28;22110;-76
2023/07/15 12:47:56;;;;;;;2.13;1.42;;;;;;;25.11;76.75;100410.91;5094423;28;20556;-75
2023/07/15 12:50:42;;;;;;;2.70;1.40;;;;;;;24.95;76.86;100399.13;5094079;28;20050;-77